Time;durP1;ratioP1;P1;durP2;ratioP2;P2;SDS_P1;SDS_P2;PMS_P1;PMS_P2;Temp;Humidity;BMP_temperature;BMP_pressure;BME280_temperature;BME280_humidity;BME280_pressure;Samples;Min_cycle;Max_cycle;Signal;HPM_P1;HPM_P2
2024/01/27 00:01:44;;;;;;;8.50;2.17;;;;;;;;;;4949448;28;99123;-81
2024/01/27 00:04:11;;;;;;;6.53;1.90;;;;;;;;;;4954188;28;100184;-83
2024/01/27 00:06:37;;;;;;;9.93;2.08;;;;;;;;;;4966536;28;99469;-81
2024/01/27 00:09:06;;;;;;;10.68;2.20;;;;;;;;;;4968360;28;99486;-83
2024/01/27 00:11:32;;;;;;;10.05;2.25;;;;;;;;;;4947088;28;99703;-82
2024/01/27 00:13:59;;;;;;;9.15;2.22;;;;;;;;;;4947765;28;98560;-83
2024/01/27 00:16:25;;;;;;;7.70;2.10;;;;;;;;;;4947907;28;99957;-82
2024/01/27 00:18:52;;;;;;;8.48;2.28;;;;;;;;;;4949627;28;99051;-83
2024/01/27 00:21:19;;;;;;;6.88;2.10;;;;;;;;;;4946501;28;98743;-82
2024/01/27 00:23:45;;;;;;;6.85;1.95;;;;;;;;;;4946602;28;98393;-83
2024/01/27 00:26:12;;;;;;;7.15;2.20;;;;;;;;;;4947234;28;99006;-80
2024/01/27 00:28:38;;;;;;;8.43;2.25;;;;;;;;;;4944719;28;98843;-80
2024/01/27 00:31:05;;;;;;;7.75;2.10;;;;;;;;;;4946409;28;99881;-80
2024/01/27 00:33:31;;;;;;;8.88;2.03;;;;;;;;;;4946841;28;98922;-80
2024/01/27 00:35:58;;;;;;;8.65;2.00;;;;;;;;;;4947187;28;98847;-80
2024/01/27 00:38:24;;;;;;;5.97;2.00;;;;;;;;;;4932026;28;99280;-81
2024/01/27 00:40:51;;;;;;;6.72;2.05;;;;;;;;;;4928873;28;98929;-80
2024/01/27 00:43:17;;;;;;;7.45;2.10;;;;;;;;;;4945022;28;99546;-80
2024/01/27 00:45:44;;;;;;;7.20;1.98;;;;;;;;;;4946194;28;98787;-79
2024/01/27 00:48:10;;;;;;;7.38;1.90;;;;;;;;;;4947283;28;98877;-81
2024/01/27 00:50:37;;;;;;;7.28;2.00;;;;;;;;;;4945731;28;99209;-82
2024/01/27 00:53:04;;;;;;;10.52;2.20;;;;;;;;;;4956463;28;98970;-81
2024/01/27 00:55:30;;;;;;;9.75;2.20;;;;;;;;;;4966922;28;99578;-81
2024/01/27 00:57:56;;;;;;;6.43;2.00;;;;;;;;;;4963512;28;99137;-82
2024/01/27 01:00:23;;;;;;;9.25;2.03;;;;;;;;;;4950095;28;99050;-81
2024/01/27 01:02:50;;;;;;;9.10;2.08;;;;;;;;;;4945782;28;99291;-81
2024/01/27 01:05:16;;;;;;;7.85;2.20;;;;;;;;;;4945798;28;99045;-81
2024/01/27 01:07:43;;;;;;;9.07;2.00;;;;;;;;;;4945995;28;98773;-81
2024/01/27 01:10:09;;;;;;;7.53;2.10;;;;;;;;;;4946640;28;99075;-79
2024/01/27 01:12:36;;;;;;;6.72;1.92;;;;;;;;;;4953910;28;98153;-80
2024/01/27 01:15:03;;;;;;;9.98;1.77;;;;;;;;;;4939915;28;101279;-79
2024/01/27 01:17:29;;;;;;;8.60;2.10;;;;;;;;;;4957153;28;99727;-80
2024/01/27 01:19:56;;;;;;;8.30;2.00;;;;;;;;;;4954663;28;99613;-81
2024/01/27 01:22:23;;;;;;;8.15;1.95;;;;;;;;;;4957809;28;98602;-81
2024/01/27 01:24:49;;;;;;;9.55;2.15;;;;;;;;;;4954803;28;100095;-79
2024/01/27 01:27:18;;;;;;;10.52;2.40;;;;;;;;;;4958728;28;98751;-79
2024/01/27 01:29:45;;;;;;;7.95;1.90;;;;;;;;;;4929462;28;101404;-79
2024/01/27 01:32:12;;;;;;;6.22;2.10;;;;;;;;;;4965928;28;99189;-80
2024/01/27 01:34:38;;;;;;;6.47;1.92;;;;;;;;;;4961491;28;98847;-79
2024/01/27 01:37:05;;;;;;;8.68;2.00;;;;;;;;;;4946351;28;98391;-80
2024/01/27 01:39:31;;;;;;;8.20;2.00;;;;;;;;;;4961522;28;98666;-80
2024/01/27 01:41:58;;;;;;;9.50;2.10;;;;;;;;;;4965456;28;98804;-80
2024/01/27 01:44:29;;;;;;;7.13;2.00;;;;;;;;;;4948859;28;100232;-79
2024/01/27 01:46:56;;;;;;;11.98;2.55;;;;;;;;;;4945809;28;104643;-80
2024/01/27 01:49:22;;;;;;;11.05;1.98;;;;;;;;;;4946276;28;100576;-79
2024/01/27 01:51:49;;;;;;;10.85;2.17;;;;;;;;;;4949230;28;98951;-81
2024/01/27 01:54:15;;;;;;;6.63;1.80;;;;;;;;;;4950269;28;98614;-80
2024/01/27 01:56:42;;;;;;;11.43;2.15;;;;;;;;;;4948221;28;99500;-79
2024/01/27 01:59:08;;;;;;;12.13;2.03;;;;;;;;;;4949189;28;98771;-79
2024/01/27 02:01:35;;;;;;;11.77;2.10;;;;;;;;;;4950228;28;98709;-79
2024/01/27 02:04:04;;;;;;;8.38;2.17;;;;;;;;;;4949345;28;99230;-79
2024/01/27 02:06:30;;;;;;;9.15;1.83;;;;;;;;;;4951830;28;99456;-78
2024/01/27 02:08:57;;;;;;;11.60;2.33;;;;;;;;;;4949487;28;99754;-79
2024/01/27 02:11:24;;;;;;;8.40;1.92;;;;;;;;;;4948997;28;99105;-79
2024/01/27 02:13:50;;;;;;;6.72;1.60;;;;;;;;;;4949452;28;98859;-79
2024/01/27 02:16:17;;;;;;;10.75;2.45;;;;;;;;;;4951379;28;99231;-79
2024/01/27 02:18:46;;;;;;;7.60;1.60;;;;;;;;;;4931999;28;98934;-79
2024/01/27 02:21:13;;;;;;;11.15;2.08;;;;;;;;;;4948358;28;102250;-79
2024/01/27 02:23:42;;;;;;;7.40;1.83;;;;;;;;;;4948738;28;100615;-80
2024/01/27 02:26:09;;;;;;;6.80;1.75;;;;;;;;;;4951527;28;98862;-80
2024/01/27 02:28:35;;;;;;;6.72;1.88;;;;;;;;;;4952079;28;98878;-80
2024/01/27 02:31:03;;;;;;;8.27;2.00;;;;;;;;;;4958875;28;98574;-79
2024/01/27 02:33:29;;;;;;;8.40;1.77;;;;;;;;;;4936214;28;101985;-81
2024/01/27 02:35:56;;;;;;;10.18;1.70;;;;;;;;;;4948498;28;100485;-81
2024/01/27 02:38:23;;;;;;;8.30;1.80;;;;;;;;;;4952597;28;98572;-81
2024/01/27 02:40:49;;;;;;;8.18;1.85;;;;;;;;;;4961011;28;98888;-81
2024/01/27 02:43:16;;;;;;;6.60;1.77;;;;;;;;;;4968037;28;99239;-81
2024/01/27 02:45:42;;;;;;;7.38;1.73;;;;;;;;;;4968171;28;98810;-80
2024/01/27 02:48:09;;;;;;;9.85;1.80;;;;;;;;;;4970860;28;98842;-79
2024/01/27 02:50:35;;;;;;;10.65;2.17;;;;;;;;;;4938462;28;98537;-79
2024/01/27 02:53:02;;;;;;;9.27;2.22;;;;;;;;;;4948787;28;99094;-79
2024/01/27 02:55:28;;;;;;;12.07;2.17;;;;;;;;;;4948862;28;99514;-80
2024/01/27 02:57:55;;;;;;;11.38;2.30;;;;;;;;;;4949295;28;99527;-81
2024/01/27 03:00:21;;;;;;;8.75;1.90;;;;;;;;;;4950235;28;99778;-80
2024/01/27 03:02:48;;;;;;;10.35;2.00;;;;;;;;;;4948972;28;99153;-80
2024/01/27 03:05:14;;;;;;;10.23;1.90;;;;;;;;;;4948700;28;105914;-79
2024/01/27 03:07:41;;;;;;;11.95;1.85;;;;;;;;;;4948644;28;99356;-79
2024/01/27 03:10:08;;;;;;;9.52;1.52;;;;;;;;;;4950174;28;99609;-79
2024/01/27 03:12:34;;;;;;;6.10;1.52;;;;;;;;;;4947503;28;99146;-79
2024/01/27 03:15:01;;;;;;;8.48;1.95;;;;;;;;;;4949161;28;98855;-80
2024/01/27 03:17:27;;;;;;;8.23;2.00;;;;;;;;;;4948381;28;98531;-80
2024/01/27 03:19:54;;;;;;;9.43;1.75;;;;;;;;;;4948904;28;100018;-79
2024/01/27 03:22:21;;;;;;;10.65;2.00;;;;;;;;;;4945893;28;100905;-79
2024/01/27 03:24:48;;;;;;;11.20;2.17;;;;;;;;;;4945294;28;99162;-78
2024/01/27 03:27:14;;;;;;;10.20;1.90;;;;;;;;;;4947848;28;105840;-79
2024/01/27 03:29:41;;;;;;;10.70;1.98;;;;;;;;;;4947789;28;99942;-78
2024/01/27 03:32:07;;;;;;;8.60;1.90;;;;;;;;;;4951468;28;98859;-79
2024/01/27 03:34:34;;;;;;;6.00;1.50;;;;;;;;;;4947780;28;100197;-79
2024/01/27 03:37:01;;;;;;;7.80;1.90;;;;;;;;;;4947943;28;98893;-78
2024/01/27 03:39:27;;;;;;;10.00;1.95;;;;;;;;;;4948146;28;99288;-79
2024/01/27 03:41:54;;;;;;;8.95;1.83;;;;;;;;;;4947250;28;99218;-79
2024/01/27 03:44:20;;;;;;;7.45;1.90;;;;;;;;;;4947499;28;98676;-78
2024/01/27 03:46:48;;;;;;;7.53;1.92;;;;;;;;;;4946790;28;99712;-79
2024/01/27 03:49:14;;;;;;;7.10;1.70;;;;;;;;;;4947115;28;100108;-79
2024/01/27 03:51:41;;;;;;;8.32;1.90;;;;;;;;;;4947882;28;99026;-79
2024/01/27 03:54:08;;;;;;;12.65;2.10;;;;;;;;;;4950850;28;100013;-80
2024/01/27 03:56:34;;;;;;;9.88;1.90;;;;;;;;;;4947417;28;99163;-79
2024/01/27 03:59:01;;;;;;;8.77;1.70;;;;;;;;;;4948478;28;98903;-80
2024/01/27 04:01:27;;;;;;;11.15;2.10;;;;;;;;;;4947522;28;99235;-80
2024/01/27 04:03:54;;;;;;;8.43;1.88;;;;;;;;;;4950661;28;98251;-80
2024/01/27 04:06:20;;;;;;;12.65;1.92;;;;;;;;;;4967184;28;98886;-80
2024/01/27 04:08:47;;;;;;;9.75;2.13;;;;;;;;;;4965907;28;99332;-79
2024/01/27 04:11:24;;;;;;;9.20;1.90;;;;;;;;;;4965659;28;99278;-77
2024/01/27 04:13:50;;;;;;;11.23;2.15;;;;;;;;;;4967389;28;99768;-78
2024/01/27 04:16:17;;;;;;;9.95;1.92;;;;;;;;;;4969816;28;99237;-78
2024/01/27 04:18:43;;;;;;;10.00;2.03;;;;;;;;;;4949085;28;98814;-78
2024/01/27 04:21:10;;;;;;;7.90;1.70;;;;;;;;;;4930296;28;100514;-80
2024/01/27 04:23:37;;;;;;;8.32;1.75;;;;;;;;;;4949578;28;98773;-79
2024/01/27 04:26:03;;;;;;;8.10;2.17;;;;;;;;;;4950906;28;98850;-80
2024/01/27 04:28:31;;;;;;;10.45;2.40;;;;;;;;;;4950254;28;98510;-79
2024/01/27 04:30:57;;;;;;;10.88;2.20;;;;;;;;;;4950508;28;98881;-79
2024/01/27 04:33:24;;;;;;;6.95;1.83;;;;;;;;;;4949426;28;98517;-79
2024/01/27 04:35:51;;;;;;;7.07;1.70;;;;;;;;;;4961604;28;100588;-79
2024/01/27 04:38:18;;;;;;;8.13;1.73;;;;;;;;;;4965120;28;98591;-79
2024/01/27 04:40:45;;;;;;;9.20;1.85;;;;;;;;;;4928378;28;100800;-79
2024/01/27 04:43:14;;;;;;;7.45;2.00;;;;;;;;;;4947625;28;98858;-80
2024/01/27 04:45:41;;;;;;;7.82;1.80;;;;;;;;;;4946912;28;99454;-81
2024/01/27 04:48:08;;;;;;;9.82;2.20;;;;;;;;;;4946312;28;99463;-81
2024/01/27 04:50:35;;;;;;;7.28;1.83;;;;;;;;;;4946950;28;98588;-79
2024/01/27 04:53:01;;;;;;;9.20;1.95;;;;;;;;;;4947717;28;98837;-81
2024/01/27 04:55:28;;;;;;;8.52;2.15;;;;;;;;;;4946600;28;99233;-80
2024/01/27 04:57:54;;;;;;;6.72;1.90;;;;;;;;;;4948608;28;99261;-80
2024/01/27 05:00:21;;;;;;;8.57;2.03;;;;;;;;;;4945990;28;100199;-80
2024/01/27 05:02:47;;;;;;;8.35;2.05;;;;;;;;;;4946428;28;98824;-80
2024/01/27 05:05:14;;;;;;;5.90;2.10;;;;;;;;;;4960524;28;98761;-80
2024/01/27 05:07:40;;;;;;;7.63;1.80;;;;;;;;;;4966194;28;99070;-80
2024/01/27 05:10:10;;;;;;;8.45;2.17;;;;;;;;;;4966612;28;99196;-80
2024/01/27 05:12:36;;;;;;;10.32;2.00;;;;;;;;;;4965838;28;99201;-78
2024/01/27 05:15:03;;;;;;;9.70;2.03;;;;;;;;;;4932381;28;101969;-78
2024/01/27 05:17:29;;;;;;;9.05;2.10;;;;;;;;;;4947245;28;104901;-78
2024/01/27 05:19:57;;;;;;;9.23;2.22;;;;;;;;;;4949882;28;99102;-78
2024/01/27 05:22:23;;;;;;;;;;;;;;;;;;4946683;28;98884;-78
2024/01/27 05:24:50;;;;;;;8.88;2.40;;;;;;;;;;4947819;28;125269;-78
2024/01/27 05:27:16;;;;;;;10.13;2.10;;;;;;;;;;4949335;28;99048;-78
2024/01/27 05:29:43;;;;;;;14.77;2.35;;;;;;;;;;4949817;28;99094;-78
2024/01/27 05:32:09;;;;;;;7.95;2.30;;;;;;;;;;4950000;28;101904;-79
2024/01/27 05:34:36;;;;;;;9.93;2.63;;;;;;;;;;4964785;28;99231;-79
2024/01/27 05:37:03;;;;;;;7.15;2.03;;;;;;;;;;4949705;28;98907;-79
2024/01/27 05:39:29;;;;;;;7.60;1.83;;;;;;;;;;4949196;28;99384;-79
2024/01/27 05:41:56;;;;;;;8.52;2.30;;;;;;;;;;4953076;28;98485;-79
2024/01/27 05:44:22;;;;;;;8.60;2.30;;;;;;;;;;4949053;28;98528;-78
2024/01/27 05:46:49;;;;;;;9.07;2.20;;;;;;;;;;4947731;28;99270;-78
2024/01/27 05:49:15;;;;;;;8.77;2.10;;;;;;;;;;4949065;28;99246;-78
2024/01/27 05:51:43;;;;;;;9.57;2.20;;;;;;;;;;4949310;28;100063;-78
2024/01/27 05:54:09;;;;;;;12.07;2.05;;;;;;;;;;4948609;28;99321;-77
2024/01/27 05:56:38;;;;;;;15.50;2.40;;;;;;;;;;4948539;28;99022;-78
2024/01/27 05:59:04;;;;;;;11.98;2.60;;;;;;;;;;4944645;28;99178;-78
2024/01/27 06:01:31;;;;;;;10.93;2.75;;;;;;;;;;4942489;28;99157;-78
2024/01/27 06:03:58;;;;;;;8.13;2.17;;;;;;;;;;4952560;28;98571;-78
2024/01/27 06:06:25;;;;;;;8.45;2.53;;;;;;;;;;4949592;28;98405;-78
2024/01/27 06:08:51;;;;;;;8.50;2.20;;;;;;;;;;4948952;28;98596;-80
2024/01/27 06:11:24;;;;;;;10.38;2.95;;;;;;;;;;4948842;28;100278;-79
2024/01/27 06:13:51;;;;;;;6.63;1.98;;;;;;;;;;4948108;28;99944;-80
2024/01/27 06:16:19;;;;;;;9.98;2.28;;;;;;;;;;4948284;28;98657;-79
2024/01/27 06:18:45;;;;;;;8.65;2.40;;;;;;;;;;4948802;28;99026;-79
2024/01/27 06:21:13;;;;;;;9.05;2.38;;;;;;;;;;4948489;28;99103;-78
2024/01/27 06:23:39;;;;;;;8.35;2.20;;;;;;;;;;4949007;28;99165;-78
2024/01/27 06:26:06;;;;;;;8.02;2.17;;;;;;;;;;4952279;28;98811;-78
2024/01/27 06:28:34;;;;;;;8.52;2.60;;;;;;;;;;4948412;28;98552;-79
2024/01/27 06:31:01;;;;;;;8.73;2.28;;;;;;;;;;4958987;28;98701;-79
2024/01/27 06:33:28;;;;;;;9.00;2.40;;;;;;;;;;4950227;28;99402;-79
2024/01/27 06:35:55;;;;;;;8.10;2.50;;;;;;;;;;4953737;28;99920;-78
2024/01/27 06:38:21;;;;;;;10.43;2.50;;;;;;;;;;4950827;28;99789;-79
2024/01/27 06:40:48;;;;;;;9.75;2.55;;;;;;;;;;4947196;28;99296;-79
2024/01/27 06:43:14;;;;;;;8.32;2.35;;;;;;;;;;4948367;28;98994;-80
2024/01/27 06:45:41;;;;;;;9.13;2.28;;;;;;;;;;4950851;28;99015;-79
2024/01/27 06:48:07;;;;;;;7.30;2.47;;;;;;;;;;4948410;28;98756;-78
2024/01/27 06:50:34;;;;;;;8.27;2.50;;;;;;;;;;4948033;28;98900;-79
2024/01/27 06:53:01;;;;;;;7.75;2.40;;;;;;;;;;4948283;28;99765;-79
2024/01/27 06:55:27;;;;;;;8.48;2.35;;;;;;;;;;4949992;28;98231;-79
2024/01/27 06:57:54;;;;;;;7.75;2.30;;;;;;;;;;4949332;28;98511;-78
2024/01/27 07:00:20;;;;;;;8.45;2.67;;;;;;;;;;4947995;28;99346;-79
2024/01/27 07:02:47;;;;;;;8.95;2.50;;;;;;;;;;4948580;28;99384;-79
2024/01/27 07:05:14;;;;;;;8.88;2.67;;;;;;;;;;4948787;28;99658;-79
2024/01/27 07:07:41;;;;;;;;;;;;;;;;;;4952934;28;99244;-79
2024/01/27 07:10:08;;;;;;;7.47;2.13;;;;;;;;;;4949914;28;98835;-79
2024/01/27 07:12:34;;;;;;;8.65;2.70;;;;;;;;;;4946997;28;99204;-79
2024/01/27 07:15:01;;;;;;;9.85;2.85;;;;;;;;;;4948181;28;98441;-79
2024/01/27 07:17:27;;;;;;;7.63;2.60;;;;;;;;;;4948060;28;98964;-80
2024/01/27 07:19:54;;;;;;;8.05;2.75;;;;;;;;;;4949352;28;98384;-79
2024/01/27 07:22:22;;;;;;;8.90;2.60;;;;;;;;;;4948498;28;98869;-78
2024/01/27 07:24:51;;;;;;;9.32;2.70;;;;;;;;;;4947943;28;99048;-78
2024/01/27 07:27:18;;;;;;;13.73;2.85;;;;;;;;;;4946820;28;100036;-79
2024/01/27 07:29:45;;;;;;;9.82;2.83;;;;;;;;;;4951363;28;98651;-79
2024/01/27 07:32:13;;;;;;;9.55;2.53;;;;;;;;;;4947514;28;99736;-78
2024/01/27 07:34:41;;;;;;;11.32;3.38;;;;;;;;;;4950852;28;99879;-79
2024/01/27 07:37:08;;;;;;;11.48;2.90;;;;;;;;;;4966956;28;98845;-79
2024/01/27 07:39:34;;;;;;;12.40;2.47;;;;;;;;;;4950889;28;99167;-79
2024/01/27 07:42:01;;;;;;;9.40;2.53;;;;;;;;;;4947473;28;99106;-80
2024/01/27 07:44:27;;;;;;;9.07;2.55;;;;;;;;;;4947685;28;99395;-80
2024/01/27 07:46:54;;;;;;;8.82;2.20;;;;;;;;;;4945027;28;99742;-80
2024/01/27 07:49:20;;;;;;;8.85;2.88;;;;;;;;;;4946868;28;98563;-80
2024/01/27 07:51:47;;;;;;;9.07;2.83;;;;;;;;;;4949720;28;99621;-80
2024/01/27 07:54:13;;;;;;;9.95;2.72;;;;;;;;;;4948014;28;98535;-81
2024/01/27 07:56:41;;;;;;;9.02;2.70;;;;;;;;;;4946907;28;100352;-80
2024/01/27 07:59:13;;;;;;;7.22;2.55;;;;;;;;;;4928814;28;100184;-79
2024/01/27 08:01:40;;;;;;;8.27;2.83;;;;;;;;;;4947238;28;98873;-79
2024/01/27 08:04:07;;;;;;;11.80;3.35;;;;;;;;;;4951751;28;98710;-79
2024/01/27 08:06:33;;;;;;;9.32;2.80;;;;;;;;;;4924668;28;102371;-79
2024/01/27 08:09:00;;;;;;;13.00;3.00;;;;;;;;;;4928613;28;98185;-78
2024/01/27 08:11:26;;;;;;;15.65;3.60;;;;;;;;;;4943511;28;99120;-80
2024/01/27 08:13:54;;;;;;;11.73;3.25;;;;;;;;;;4950383;28;99172;-79
2024/01/27 08:16:21;;;;;;;12.82;2.92;;;;;;;;;;4928882;28;101679;-79
2024/01/27 08:18:48;;;;;;;11.68;3.13;;;;;;;;;;4945760;28;99168;-79
2024/01/27 08:21:14;;;;;;;11.05;3.33;;;;;;;;;;4946266;28;98533;-79
2024/01/27 08:23:41;;;;;;;9.00;3.00;;;;;;;;;;4947040;28;99180;-80
2024/01/27 08:26:07;;;;;;;12.07;3.20;;;;;;;;;;4946330;28;99270;-79
2024/01/27 08:28:34;;;;;;;18.23;3.40;;;;;;;;;;4946135;28;99144;-80
2024/01/27 08:31:01;;;;;;;11.15;3.60;;;;;;;;;;4956149;28;98805;-76
2024/01/27 08:33:28;;;;;;;16.13;3.60;;;;;;;;;;4966019;28;99444;-74
2024/01/27 08:35:55;;;;;;;11.88;3.47;;;;;;;;;;4955524;28;98887;-75
2024/01/27 08:38:22;;;;;;;10.77;3.08;;;;;;;;;;4951485;28;100200;-74
2024/01/27 08:40:48;;;;;;;9.82;3.03;;;;;;;;;;4962959;28;99607;-72
2024/01/27 08:43:15;;;;;;;14.10;3.55;;;;;;;;;;4946472;28;99592;-74
2024/01/27 08:45:41;;;;;;;11.52;3.22;;;;;;;;;;4945823;28;100483;-74
2024/01/27 08:48:09;;;;;;;9.98;3.03;;;;;;;;;;4946361;28;98804;-73
2024/01/27 08:50:36;;;;;;;11.73;2.90;;;;;;;;;;4945940;28;100095;-73
2024/01/27 08:53:03;;;;;;;20.00;2.85;;;;;;;;;;4944912;28;100258;-73
2024/01/27 08:55:29;;;;;;;9.75;2.92;;;;;;;;;;4949471;28;98871;-74
2024/01/27 08:57:58;;;;;;;11.25;2.83;;;;;;;;;;4947090;28;98628;-74
2024/01/27 09:00:25;;;;;;;11.88;2.75;;;;;;;;;;4949753;28;99192;-74
2024/01/27 09:02:52;;;;;;;11.23;3.03;;;;;;;;;;4949087;28;99155;-74
2024/01/27 09:05:19;;;;;;;9.95;2.88;;;;;;;;;;4930161;28;102436;-74
2024/01/27 09:07:46;;;;;;;7.50;2.63;;;;;;;;;;4949023;28;98719;-74
2024/01/27 09:10:15;;;;;;;9.23;2.60;;;;;;;;;;4949129;28;100094;-74
2024/01/27 09:12:42;;;;;;;9.50;2.75;;;;;;;;;;4946690;28;100179;-74
2024/01/27 09:15:09;;;;;;;6.63;2.50;;;;;;;;;;4948952;28;98779;-73
2024/01/27 09:17:36;;;;;;;10.80;3.00;;;;;;;;;;4952113;28;99277;-73
2024/01/27 09:20:02;;;;;;;8.82;2.78;;;;;;;;;;4949024;28;98575;-73
2024/01/27 09:22:29;;;;;;;6.97;2.42;;;;;;;;;;4949499;28;98904;-73
2024/01/27 09:24:56;;;;;;;7.45;2.33;;;;;;;;;;4948697;28;103982;-73
2024/01/27 09:27:22;;;;;;;8.65;2.60;;;;;;;;;;4959095;28;98771;-72
2024/01/27 09:29:49;;;;;;;6.35;2.50;;;;;;;;;;4968112;28;99264;-73
2024/01/27 09:32:15;;;;;;;7.78;2.70;;;;;;;;;;4963260;28;100614;-73
2024/01/27 09:34:42;;;;;;;8.18;2.72;;;;;;;;;;4947767;28;98903;-73
2024/01/27 09:37:08;;;;;;;8.50;2.50;;;;;;;;;;4948455;28;98844;-74
2024/01/27 09:39:35;;;;;;;7.10;2.67;;;;;;;;;;4963877;28;100178;-73
2024/01/27 09:42:04;;;;;;;5.85;2.45;;;;;;;;;;4948655;28;100361;-74
2024/01/27 09:44:31;;;;;;;11.70;2.70;;;;;;;;;;4947447;28;99052;-73
2024/01/27 09:46:58;;;;;;;7.18;2.42;;;;;;;;;;4948669;28;97806;-72
2024/01/27 09:49:26;;;;;;;7.05;2.40;;;;;;;;;;4948356;28;99106;-72
2024/01/27 09:51:53;;;;;;;8.35;2.75;;;;;;;;;;4947415;28;100046;-72
2024/01/27 09:54:20;;;;;;;6.32;2.25;;;;;;;;;;4946443;28;99527;-73
2024/01/27 09:56:47;;;;;;;8.23;2.20;;;;;;;;;;4947190;28;99488;-72
2024/01/27 09:59:16;;;;;;;6.90;2.35;;;;;;;;;;4946757;28;100452;-72
2024/01/27 10:01:42;;;;;;;7.80;2.50;;;;;;;;;;4950466;28;98912;-72
2024/01/27 10:04:09;;;;;;;5.40;2.30;;;;;;;;;;4946056;28;99522;-72
2024/01/27 10:06:35;;;;;;;6.85;2.55;;;;;;;;;;4947682;28;98908;-72
2024/01/27 10:09:02;;;;;;;7.68;2.42;;;;;;;;;;4954656;28;99544;-73
2024/01/27 10:11:30;;;;;;;7.72;2.38;;;;;;;;;;4967617;28;99762;-72
2024/01/27 10:13:57;;;;;;;7.88;2.28;;;;;;;;;;4967731;28;98802;-73
2024/01/27 10:16:26;;;;;;;7.63;2.40;;;;;;;;;;4967639;28;99101;-72
2024/01/27 10:18:59;;;;;;;6.53;2.50;;;;;;;;;;4964621;28;99952;-72
2024/01/27 10:21:27;;;;;;;5.97;2.15;;;;;;;;;;4965946;28;98893;-73
2024/01/27 10:23:53;;;;;;;6.30;2.22;;;;;;;;;;4956332;28;98863;-72
2024/01/27 10:26:20;;;;;;;8.02;2.30;;;;;;;;;;4946572;28;98725;-73
2024/01/27 10:28:53;;;;;;;7.60;2.63;;;;;;;;;;4945644;28;99851;-73
2024/01/27 10:31:23;;;;;;;6.03;2.40;;;;;;;;;;4950294;28;100496;-73
2024/01/27 10:33:53;;;;;;;5.95;2.38;;;;;;;;;;4965670;28;100176;-73
2024/01/27 10:36:20;;;;;;;6.05;2.35;;;;;;;;;;4948758;28;100273;-73
2024/01/27 10:38:46;;;;;;;7.43;2.42;;;;;;;;;;4935545;28;100383;-73
2024/01/27 10:41:17;;;;;;;5.93;2.33;;;;;;;;;;4962438;28;98817;-72
2024/01/27 10:43:44;;;;;;;6.22;2.33;;;;;;;;;;4966144;28;99575;-72
2024/01/27 10:46:12;;;;;;;6.20;2.30;;;;;;;;;;4968961;28;100247;-72
2024/01/27 10:48:39;;;;;;;6.85;2.50;;;;;;;;;;4965225;28;98801;-72
2024/01/27 10:51:08;;;;;;;6.28;2.58;;;;;;;;;;4961221;28;100164;-73
2024/01/27 10:53:35;;;;;;;6.40;2.17;;;;;;;;;;4946527;28;98606;-73
2024/01/27 10:56:03;;;;;;;6.63;2.25;;;;;;;;;;4945709;28;98848;-73
2024/01/27 10:58:31;;;;;;;5.63;2.28;;;;;;;;;;4928100;28;101678;-71
2024/01/27 11:00:58;;;;;;;6.93;2.60;;;;;;;;;;4947070;28;97790;-72
2024/01/27 11:03:24;;;;;;;;;;;;;;;;;;4947085;28;99012;-73
2024/01/27 11:05:52;;;;;;;6.72;2.40;;;;;;;;;;4951126;28;106857;-73
2024/01/27 11:08:19;;;;;;;5.70;2.40;;;;;;;;;;4945902;28;99470;-73
2024/01/27 11:10:46;;;;;;;7.38;2.60;;;;;;;;;;4945957;28;100300;-72
2024/01/27 11:13:12;;;;;;;6.97;2.60;;;;;;;;;;4946865;28;98896;-73
2024/01/27 11:15:39;;;;;;;6.82;2.30;;;;;;;;;;4946562;28;99656;-73
2024/01/27 11:18:05;;;;;;;6.82;2.50;;;;;;;;;;4945928;28;100128;-73
2024/01/27 11:20:32;;;;;;;7.13;2.25;;;;;;;;;;4946197;28;98521;-73
2024/01/27 11:23:09;;;;;;;5.15;2.13;;;;;;;;;;4945932;28;100251;-72
2024/01/27 11:25:35;;;;;;;7.07;2.50;;;;;;;;;;4946010;28;99742;-73
2024/01/27 11:28:10;;;;;;;6.13;2.40;;;;;;;;;;4948672;28;98579;-72
2024/01/27 11:30:39;;;;;;;4.93;2.03;;;;;;;;;;4944970;28;100312;-72
2024/01/27 11:33:08;;;;;;;7.03;2.13;;;;;;;;;;4945423;28;99759;-74
2024/01/27 11:35:34;;;;;;;7.15;2.20;;;;;;;;;;4945705;28;99494;-74
2024/01/27 11:38:01;;;;;;;5.68;2.22;;;;;;;;;;4948662;28;100162;-74
2024/01/27 11:40:28;;;;;;;6.60;2.13;;;;;;;;;;4965783;28;98855;-74
2024/01/27 11:42:58;;;;;;;5.20;1.98;;;;;;;;;;4965575;28;102122;-74
2024/01/27 11:45:25;;;;;;;4.70;1.92;;;;;;;;;;4965197;28;100743;-74
2024/01/27 11:47:52;;;;;;;5.28;2.13;;;;;;;;;;4955633;28;98608;-74
2024/01/27 11:50:18;;;;;;;6.88;2.30;;;;;;;;;;4949057;28;100046;-74
2024/01/27 11:52:45;;;;;;;5.63;2.13;;;;;;;;;;4946198;28;98474;-74
2024/01/27 11:55:12;;;;;;;6.65;2.20;;;;;;;;;;4946768;28;99839;-74
2024/01/27 11:57:38;;;;;;;5.50;2.10;;;;;;;;;;4945525;28;100531;-74
2024/01/27 12:00:05;;;;;;;7.80;2.25;;;;;;;;;;4947141;28;98844;-74
2024/01/27 12:02:33;;;;;;;6.90;2.05;;;;;;;;;;4946303;28;98959;-74
2024/01/27 12:04:59;;;;;;;5.75;2.17;;;;;;;;;;4957600;28;100458;-74
2024/01/27 12:07:26;;;;;;;5.57;2.00;;;;;;;;;;4966504;28;99139;-74
2024/01/27 12:09:53;;;;;;;6.10;2.20;;;;;;;;;;4966043;28;100125;-74
2024/01/27 12:12:20;;;;;;;6.85;2.30;;;;;;;;;;4969093;28;100206;-74
2024/01/27 12:14:46;;;;;;;;;;;;;;;;;;4966760;28;99921;-74
2024/01/27 12:17:13;;;;;;;7.57;2.40;;;;;;;;;;4946250;28;122871;-74
2024/01/27 12:19:45;;;;;;;5.90;2.20;;;;;;;;;;4946739;28;98553;-74
2024/01/27 12:22:28;;;;;;;6.22;2.10;;;;;;;;;;4945234;28;100067;-74
2024/01/27 12:24:55;;;;;;;7.93;2.38;;;;;;;;;;4945374;28;99390;-74
2024/01/27 12:27:22;;;;;;;6.53;2.28;;;;;;;;;;4946074;28;98756;-74
2024/01/27 12:29:49;;;;;;;;;;;;;;;;;;4946519;28;99024;-74
2024/01/27 12:32:17;;;;;;;6.45;2.00;;;;;;;;;;4966627;28;99204;-74
2024/01/27 12:34:45;;;;;;;5.78;2.20;;;;;;;;;;4955957;28;98875;-74
2024/01/27 12:37:13;;;;;;;6.25;2.00;;;;;;;;;;4929631;28;99247;-74
2024/01/27 12:39:44;;;;;;;7.03;2.00;;;;;;;;;;4962325;28;97904;-74
2024/01/27 12:42:11;;;;;;;6.93;2.30;;;;;;;;;;4965446;28;99227;-74
2024/01/27 12:44:37;;;;;;;;;;;;;;;;;;4950890;28;100368;-74
2024/01/27 12:47:04;;;;;;;6.50;2.08;;;;;;;;;;4945019;28;117865;-74
2024/01/27 12:49:31;;;;;;;5.60;1.75;;;;;;;;;;4947153;28;100018;-74
2024/01/27 12:51:57;;;;;;;6.55;1.95;;;;;;;;;;4951734;28;99133;-74
2024/01/27 12:54:24;;;;;;;5.45;2.08;;;;;;;;;;4951387;28;99091;-74
2024/01/27 12:56:51;;;;;;;5.90;1.90;;;;;;;;;;4948367;28;99228;-74
2024/01/27 12:59:17;;;;;;;7.97;2.13;;;;;;;;;;4954381;28;98519;-74
2024/01/27 13:01:44;;;;;;;5.68;1.77;;;;;;;;;;4945858;28;99089;-75
2024/01/27 13:04:10;;;;;;;7.90;2.03;;;;;;;;;;4946080;28;98291;-74
2024/01/27 13:06:37;;;;;;;6.82;1.90;;;;;;;;;;4945054;28;98622;-74
2024/01/27 13:09:04;;;;;;;;;;;;;;;;;;4945601;28;98742;-74
2024/01/27 13:11:30;;;;;;;6.35;1.98;;;;;;;;;;4944132;28;126720;-74
2024/01/27 13:13:57;;;;;;;6.30;2.17;;;;;;;;;;4945416;28;98588;-74
2024/01/27 13:16:23;;;;;;;7.55;1.98;;;;;;;;;;4948376;28;98965;-75
2024/01/27 13:18:50;;;;;;;6.60;1.95;;;;;;;;;;4943352;28;98675;-75
2024/01/27 13:21:16;;;;;;;5.43;1.77;;;;;;;;;;4944565;28;100191;-75
2024/01/27 13:23:43;;;;;;;6.25;1.83;;;;;;;;;;4944651;28;100086;-75
2024/01/27 13:26:10;;;;;;;7.95;2.10;;;;;;;;;;4944471;28;99086;-75
2024/01/27 13:28:45;;;;;;;6.80;1.92;;;;;;;;;;4945877;28;98783;-73
2024/01/27 13:31:12;;;;;;;6.80;2.10;;;;;;;;;;4938557;28;100526;-73
2024/01/27 13:33:38;;;;;;;5.85;1.92;;;;;;;;;;4964918;28;99194;-74
2024/01/27 13:36:05;;;;;;;6.47;1.90;;;;;;;;;;4945520;28;99310;-74
2024/01/27 13:38:33;;;;;;;6.43;2.13;;;;;;;;;;4954897;28;100379;-74
2024/01/27 13:41:00;;;;;;;8.15;2.10;;;;;;;;;;4950543;28;101529;-74
2024/01/27 13:43:26;;;;;;;5.93;2.13;;;;;;;;;;4945693;28;99395;-74
2024/01/27 13:45:54;;;;;;;7.93;2.22;;;;;;;;;;4947742;28;98887;-74
2024/01/27 13:48:21;;;;;;;7.25;2.13;;;;;;;;;;4947515;28;101846;-74
2024/01/27 13:50:48;;;;;;;6.88;2.25;;;;;;;;;;4947839;28;99220;-75
2024/01/27 13:53:14;;;;;;;9.63;2.25;;;;;;;;;;4948471;28;98090;-74
2024/01/27 13:55:42;;;;;;;4.88;1.85;;;;;;;;;;4948837;28;98469;-74
2024/01/27 13:58:09;;;;;;;6.55;2.30;;;;;;;;;;4949482;28;99180;-74
2024/01/27 14:00:35;;;;;;;6.20;1.85;;;;;;;;;;4952075;28;99398;-73
2024/01/27 14:03:02;;;;;;;7.82;2.13;;;;;;;;;;4948059;28;99269;-75
2024/01/27 14:05:29;;;;;;;8.90;2.13;;;;;;;;;;4949001;28;98711;-74
2024/01/27 14:07:56;;;;;;;8.35;1.98;;;;;;;;;;4948669;28;99180;-75
2024/01/27 14:10:24;;;;;;;7.18;2.00;;;;;;;;;;4946487;28;99278;-74
2024/01/27 14:12:51;;;;;;;8.93;2.17;;;;;;;;;;4947733;28;98579;-74
2024/01/27 14:15:18;;;;;;;6.38;2.10;;;;;;;;;;4947632;28;100422;-74
2024/01/27 14:17:45;;;;;;;7.95;2.08;;;;;;;;;;4948135;28;98404;-74
2024/01/27 14:20:12;;;;;;;;;;;;;;;;;;4949109;28;98582;-74
2024/01/27 14:22:38;;;;;;;7.20;2.17;;;;;;;;;;4951122;28;110388;-74
2024/01/27 14:25:06;;;;;;;9.80;2.28;;;;;;;;;;4948425;28;99791;-74
2024/01/27 14:27:32;;;;;;;6.90;2.03;;;;;;;;;;4947890;28;100611;-74
2024/01/27 14:29:59;;;;;;;7.75;2.33;;;;;;;;;;4945550;28;100702;-74
2024/01/27 14:32:26;;;;;;;7.95;2.22;;;;;;;;;;4948083;28;98860;-74
2024/01/27 14:34:52;;;;;;;9.80;2.30;;;;;;;;;;4947287;28;100323;-75
2024/01/27 14:37:19;;;;;;;12.10;3.22;;;;;;;;;;4947212;28;99372;-75
2024/01/27 14:39:46;;;;;;;9.13;2.90;;;;;;;;;;4965061;28;99044;-74